Rominger, North Carolina
Current Conditions -  °F | °C
As of 6:15 PM on Sunday 21 Dec 2014 (Local Time) from KTNB Reporting Station
Haze Haze  
Wind Chill: 35°   Ceiling: 400
Heat Index: 35°   Visibility: 4mi
Dew Point: 35°   Wind: 3mph
Humidity: 99%   Direction: 110°ESE
Pressure: 30.15"   Gusts: NA
Location:  36.1797°N, 81.8424°W
Report Text: KTNB 212315Z AUTO 11003KT 4SM BR BKN004 02/02 A3015 RMK AO2 T00180017
Loading
Personal Weather Stations






























Interactive Weather Map New forecast layout! Learn more

10-Day Weather Forecast

Advertisements
Track Severe Weather on mobile